Simon Bolivar, Colombia

6:14 AM COT en Septiembre 01, 2014 (GMT -0500)
Simon Bolivar | Change Station
CLOSE
Current Station
Aeropuerto
Location: Santa Marta,
Altura: 13 ft
Estaciones meteorológicas cercanas

Alt 13 ft 11.12 °N, 74.23 °W | Updated 14 minutes ago

Scattered Clouds
Nubes dispersas
77 ° F
Sensación térmica 77 ° F
N
0
Viento Variable Viento desde Norte

Hoy
Alta -- | Baja -- ° F
--% Posibilidad de precipitaciones
Ayer
Alta -- | Baja -- ° F
Precip. -- pul
5:47 AM 6:06 PM
Creciente, 40% visible
Presión 29.80 pul
Visibilidad 6.2 Millas
Nubes Baja 2000 ft
Nubes dispersas 20000 ft
Punto de rocío 70 ° F
Humedad 78%
Precipitaciones 0.00 pul
Espesor de la nieve No disponible.
UV 0 de una escala de 12
Polen No disponible.
Calidad del aire No disponible.
Flu Activity No disponible.
METAR SKSM 011100Z 00000KT 9999 FEW020 SCT200 25/21 A2980

More Conditions Fewer Conditions

Presión 29.80 pul
Visibilidad 6.2 Millas
Nubes Baja 2000 ft
Nubes dispersas 20000 ft
Punto de rocío 70 ° F
Humedad 78%
Precipitaciones 0.00 pul
Espesor de la nieve No disponible.
UV 0 de una escala de 12
Polen No disponible.
Calidad del aire No disponible.
Flu Activity No disponible.
METAR SKSM 011100Z 00000KT 9999 FEW020 SCT200 25/21 A2980

More Conditions Fewer Conditions

10-Day Weather Forecast

Almanac

Astronomía

Sep. 01, 2014 Salida Puesta
Hora real 5:47 AM COT 6:06 PM COT
Crepúsculo civil 5:25 AM COT 6:27 PM COT
Crepúsculo náutico 5:00 AM COT 6:52 PM COT
Crepúsculo astronómico 4:35 AM COT 7:17 PM COT
Luna 11:20 AM COT 11:16 PM COT
Horas de luz 13h 02m
Horas de luz
12h 19m
Tomorrow will be 0m 36s shorter.
Creciente, 40% of the Moon is Illuminated
Hoy
Creciente
Sep 2
Cuarto creciente
Sep 8
Luna llena
Sep 15
Cuarto menguante
Sep 24
Nueva

Extremos de ayer

Máximos del país Bajas del país

Community

WunderPhotos

Upload Photos

1,749,188 ¡fotos cargadas!

Nearby

Calidad del aire

Not available.

Grosos de nieve

Not available.

Actividad de terremotos

Ciudad Distance Mag. Tiempo y dato
No hay informes recientes de la actividad sísmica.
Magnitud mínima muestra es 2,5.

Temperaturas de aguas costeras

Lugar Temperatura
Sin partes meteorológicos de las estaciones

Estaciones meteorológicas cercanas